createdAt,value
2022-10-17T00:00:47.537Z,13.50
2022-10-17T00:03:15.478Z,13.50
2022-10-17T00:05:44.114Z,13.50
2022-10-17T00:08:12.440Z,12.50
2022-10-17T00:10:40.556Z,12.50
2022-10-17T00:13:08.723Z,14.25
2022-10-17T00:15:36.879Z,12.50
2022-10-17T00:18:06.199Z,12.50
2022-10-17T00:20:36.255Z,11.50
2022-10-17T00:23:04.290Z,12.75
2022-10-17T00:25:32.468Z,11.25
2022-10-17T00:28:00.425Z,10.50
2022-10-17T00:30:28.269Z,12.75
2022-10-17T00:32:56.150Z,12.00
2022-10-17T00:35:26.260Z,11.75
2022-10-17T00:37:54.110Z,11.50
2022-10-17T00:40:21.974Z,12.50
2022-10-17T00:42:51.318Z,11.50
2022-10-17T00:45:23.042Z,10.50
2022-10-17T00:47:53.682Z,11.25
2022-10-17T00:50:21.738Z,10.50
2022-10-17T00:52:50.963Z,12.25
2022-10-17T00:55:21.019Z,11.25
2022-10-17T00:57:48.859Z,10.75
2022-10-17T01:00:16.996Z,10.50
2022-10-17T01:02:45.019Z,10.50
2022-10-17T01:05:13.229Z,8.75
2022-10-17T01:07:41.148Z,9.00
2022-10-17T01:10:10.826Z,11.00
2022-10-17T01:12:56.540Z,10.25
2022-10-17T01:15:30.581Z,11.50
2022-10-17T01:18:05.331Z,10.25
2022-10-17T01:21:08.397Z,10.50
2022-10-17T01:24:18.109Z,9.50
2022-10-17T01:26:59.094Z,9.75
2022-10-17T01:30:05.379Z,9.25
2022-10-17T01:32:38.282Z,9.75
2022-10-17T01:35:10.568Z,9.25
2022-10-17T01:37:41.332Z,10.00
2022-10-17T01:40:11.373Z,9.00
2022-10-17T01:42:40.939Z,8.75
2022-10-17T01:45:11.343Z,9.00
2022-10-17T01:47:40.567Z,9.00
2022-10-17T01:50:11.936Z,8.00
2022-10-17T01:52:41.164Z,9.75
2022-10-17T01:55:10.399Z,9.25
2022-10-17T01:57:39.999Z,9.50
2022-10-17T02:00:11.188Z,8.50
2022-10-17T02:02:40.740Z,9.25
2022-10-17T02:05:09.485Z,8.00
2022-10-17T02:07:37.350Z,8.75
2022-10-17T02:10:05.902Z,9.50
2022-10-17T02:12:39.209Z,7.50
2022-10-17T02:15:22.740Z,8.25
2022-10-17T02:17:54.977Z,8.25
2022-10-17T02:20:25.030Z,8.25
2022-10-17T02:22:55.534Z,9.50
2022-10-17T02:25:28.870Z,8.25
2022-10-17T02:27:57.893Z,8.50
2022-10-17T02:30:30.465Z,7.50
2022-10-17T02:33:01.004Z,8.50
2022-10-17T02:35:30.671Z,9.00
2022-10-17T02:37:58.640Z,7.50
2022-10-17T02:40:26.508Z,8.00
2022-10-17T02:42:54.410Z,8.00
2022-10-17T02:45:22.614Z,9.25
2022-10-17T02:47:53.249Z,7.50
2022-10-17T02:50:24.258Z,9.25
2022-10-17T02:52:53.721Z,8.25
2022-10-17T02:55:23.561Z,7.00
2022-10-17T02:57:52.418Z,7.25
2022-10-17T03:00:20.482Z,7.50
2022-10-17T03:02:49.166Z,8.50
2022-10-17T03:05:19.582Z,7.50
2022-10-17T03:07:48.882Z,7.50
2022-10-17T03:10:16.894Z,7.25
2022-10-17T03:12:44.761Z,7.25
2022-10-17T03:15:13.791Z,8.00
2022-10-17T03:17:41.765Z,6.75
2022-10-17T03:20:10.240Z,6.25
2022-10-17T03:22:38.118Z,7.50
2022-10-17T03:25:08.416Z,7.25
2022-10-17T03:27:36.294Z,7.50
2022-10-17T03:30:04.295Z,7.00
2022-10-17T03:32:34.185Z,6.75
2022-10-17T03:35:02.373Z,8.00
2022-10-17T03:37:30.553Z,6.75
2022-10-17T03:39:58.725Z,7.75
2022-10-17T03:42:28.033Z,7.00
2022-10-17T03:44:56.163Z,8.50
2022-10-17T03:47:24.025Z,10.50
2022-10-17T03:49:53.536Z,9.00
2022-10-17T03:52:21.418Z,9.75
2022-10-17T03:54:49.281Z,12.50
2022-10-17T03:57:17.143Z,12.50
2022-10-17T03:59:46.368Z,11.50
2022-10-17T04:02:14.237Z,11.75
2022-10-17T04:04:42.375Z,11.75
2022-10-17T04:07:10.189Z,10.50
2022-10-17T04:09:38.009Z,11.50
2022-10-17T04:12:06.148Z,12.50
2022-10-17T04:14:34.377Z,13.50
2022-10-17T04:17:03.627Z,13.50
2022-10-17T04:19:31.484Z,10.75
2022-10-17T04:21:59.326Z,13.00
2022-10-17T04:24:27.855Z,12.00
2022-10-17T04:26:55.801Z,10.50
2022-10-17T04:29:23.678Z,12.00
2022-10-17T04:31:52.317Z,11.00
2022-10-17T04:34:21.899Z,10.75
2022-10-17T04:36:49.783Z,10.75
2022-10-17T04:39:17.644Z,10.50
2022-10-17T04:41:45.634Z,11.50
2022-10-17T04:44:13.995Z,10.75
2022-10-17T04:46:41.886Z,12.50
2022-10-17T04:49:09.888Z,11.00
2022-10-17T04:51:39.165Z,11.25
2022-10-17T04:54:07.428Z,10.75
2022-10-17T04:56:35.377Z,10.25
2022-10-17T04:59:03.249Z,11.25
2022-10-17T05:01:31.201Z,11.25
2022-10-17T05:03:59.688Z,11.00
2022-10-17T05:06:28.722Z,14.00
2022-10-17T05:08:58.750Z,11.25
2022-10-17T05:11:27.274Z,12.00
2022-10-17T05:13:56.204Z,12.50
2022-10-17T05:16:24.367Z,11.50
2022-10-17T05:18:53.208Z,11.00
2022-10-17T05:21:21.404Z,10.75
2022-10-17T05:23:49.607Z,9.50
2022-10-17T05:26:19.028Z,9.50
2022-10-17T05:28:46.974Z,11.25
2022-10-17T05:31:15.082Z,10.00
2022-10-17T05:33:42.943Z,10.75
2022-10-17T05:36:10.841Z,9.50
2022-10-17T05:38:38.732Z,10.50
2022-10-17T05:41:06.867Z,9.50
2022-10-17T05:43:36.161Z,10.50
2022-10-17T05:46:05.207Z,7.50
2022-10-17T05:48:33.023Z,9.25
2022-10-17T05:51:01.078Z,8.50
2022-10-17T05:53:31.530Z,8.75
2022-10-17T05:55:59.520Z,10.50
2022-10-17T06:01:16.818Z,9.75
2022-10-17T06:03:44.651Z,9.50
2022-10-17T06:06:13.313Z,9.25
2022-10-17T06:08:41.248Z,9.00
2022-10-17T06:11:10.317Z,10.25
2022-10-17T06:13:38.654Z,10.25
2022-10-17T06:16:06.951Z,9.50
2022-10-17T06:18:36.227Z,9.50
2022-10-17T06:21:04.564Z,8.50
2022-10-17T06:23:32.439Z,8.50
2022-10-17T06:26:01.020Z,9.25
2022-10-17T06:28:29.038Z,9.25
2022-10-17T06:30:56.960Z,8.50
2022-10-17T06:33:24.820Z,8.50
2022-10-17T06:35:54.608Z,8.50
2022-10-17T06:38:22.573Z,8.75
2022-10-17T06:40:50.423Z,8.75
2022-10-17T06:43:18.281Z,7.00
2022-10-17T06:45:47.455Z,8.00
2022-10-17T06:48:15.596Z,8.00
2022-10-17T06:50:43.493Z,7.75
2022-10-17T06:53:12.761Z,8.50
2022-10-17T06:55:40.948Z,7.50
2022-10-17T06:58:08.803Z,7.75
2022-10-17T07:00:36.716Z,8.50
2022-10-17T07:03:04.743Z,7.50
2022-10-17T07:05:32.860Z,6.75
2022-10-17T07:08:00.741Z,8.50
2022-10-17T07:10:29.998Z,7.50
2022-10-17T07:12:57.871Z,6.75
2022-10-17T07:15:26.060Z,8.50
2022-10-17T07:17:53.962Z,8.25
2022-10-17T07:20:21.811Z,7.50
2022-10-17T07:22:49.704Z,6.75
2022-10-17T07:25:17.901Z,7.50
2022-10-17T07:27:47.194Z,7.50
2022-10-17T07:30:15.077Z,7.25
2022-10-17T07:32:43.261Z,6.75
2022-10-17T07:35:11.230Z,7.50
2022-10-17T07:37:39.127Z,7.00
2022-10-17T07:40:08.036Z,7.00
2022-10-17T07:45:12.591Z,7.00
2022-10-17T07:47:40.469Z,6.75
2022-10-17T07:50:09.200Z,7.00
2022-10-17T07:52:37.040Z,6.50
2022-10-17T07:55:05.882Z,6.50
2022-10-17T07:57:33.747Z,7.00
2022-10-17T08:00:01.616Z,6.75
2022-10-17T08:02:31.190Z,7.25
2022-10-17T08:04:59.452Z,7.75
2022-10-17T08:07:29.414Z,7.50
2022-10-17T08:09:57.580Z,6.50
2022-10-17T08:12:26.194Z,6.75
2022-10-17T08:14:54.109Z,5.75
2022-10-17T08:17:22.036Z,6.50
2022-10-17T08:19:51.260Z,7.00
2022-10-17T08:22:19.110Z,7.00
2022-10-17T08:24:47.343Z,7.50
2022-10-17T08:27:15.243Z,6.50
2022-10-17T08:29:43.155Z,7.50
2022-10-17T08:32:11.091Z,7.00
2022-10-17T08:34:39.216Z,7.00
2022-10-17T08:37:08.516Z,5.50
2022-10-17T08:39:36.460Z,6.50
2022-10-17T08:42:18.764Z,6.25
2022-10-17T08:44:51.073Z,5.00
2022-10-17T08:47:22.217Z,6.00
2022-10-17T08:49:52.459Z,5.50
2022-10-17T08:52:32.717Z,6.25
2022-10-17T08:55:00.752Z,6.00
2022-10-17T08:57:29.793Z,6.00
2022-10-17T08:59:57.877Z,6.50
2022-10-17T09:02:37.133Z,4.75
2022-10-17T09:05:30.771Z,5.50
2022-10-17T09:08:04.535Z,5.75
2022-10-17T09:10:37.651Z,6.75
2022-10-17T09:13:11.383Z,5.00
2022-10-17T09:15:44.456Z,5.75
2022-10-17T09:18:13.703Z,7.00
2022-10-17T09:20:43.229Z,6.50
2022-10-17T09:23:14.652Z,6.25
2022-10-17T09:25:44.128Z,6.00
2022-10-17T09:28:15.119Z,6.25
2022-10-17T09:30:45.641Z,5.75
2022-10-17T09:33:23.323Z,5.50
2022-10-17T09:36:03.272Z,5.00
2022-10-17T09:38:38.132Z,5.50
2022-10-17T09:41:15.933Z,5.00
2022-10-17T09:43:48.205Z,6.75
2022-10-17T09:46:21.381Z,4.75
2022-10-17T09:48:53.307Z,5.75
2022-10-17T09:51:25.956Z,5.75
2022-10-17T09:53:58.034Z,5.75
2022-10-17T09:56:25.879Z,5.75
2022-10-17T09:58:54.689Z,6.00
2022-10-17T10:01:24.667Z,5.75
2022-10-17T10:04:10.574Z,5.50
2022-10-17T10:06:38.534Z,4.50
2022-10-17T10:09:08.008Z,4.75
2022-10-17T10:11:48.990Z,5.50
2022-10-17T10:14:21.820Z,5.00
2022-10-17T10:16:49.975Z,4.75
2022-10-17T10:19:22.347Z,5.50
2022-10-17T10:21:56.945Z,5.00
2022-10-17T10:24:30.784Z,4.50
2022-10-17T10:26:59.697Z,4.75
2022-10-17T10:29:30.961Z,4.50
2022-10-17T10:32:00.103Z,4.75
2022-10-17T10:34:30.062Z,4.50
2022-10-17T10:37:00.446Z,5.00
2022-10-17T10:39:40.053Z,5.00
2022-10-17T10:42:09.543Z,4.50
2022-10-17T10:44:37.821Z,4.50
2022-10-17T10:47:24.071Z,4.50
2022-10-17T10:49:52.682Z,5.75
2022-10-17T10:52:30.576Z,5.25
2022-10-17T10:55:06.358Z,5.75
2022-10-17T10:57:35.016Z,4.50
2022-10-17T11:00:09.010Z,5.00
2022-10-17T11:02:38.725Z,5.25
2022-10-17T11:05:12.231Z,4.50
2022-10-17T11:07:41.792Z,4.75
2022-10-17T11:10:13.473Z,4.50
2022-10-17T11:15:19.520Z,4.00
2022-10-17T11:17:51.877Z,3.50
2022-10-17T11:20:22.575Z,4.50
2022-10-17T11:22:51.030Z,4.25
2022-10-17T11:25:29.847Z,4.75
2022-10-17T11:28:00.949Z,4.50
2022-10-17T11:30:40.685Z,4.25
2022-10-17T11:33:08.571Z,4.50
2022-10-17T11:35:38.771Z,4.50
2022-10-17T11:38:14.889Z,4.50
2022-10-17T11:40:46.180Z,4.50
2022-10-17T11:43:16.012Z,4.50
2022-10-17T11:45:45.887Z,4.25
2022-10-17T11:48:14.940Z,4.50
2022-10-17T11:53:35.729Z,3.25
2022-10-17T11:56:05.042Z,4.50
2022-10-17T11:58:38.515Z,4.00
2022-10-17T12:01:11.361Z,4.50
2022-10-17T12:03:49.621Z,4.50
2022-10-17T12:06:25.844Z,4.00
2022-10-17T12:08:59.538Z,4.75
2022-10-17T12:11:35.772Z,3.75
2022-10-17T12:14:05.847Z,4.75
2022-10-17T12:16:48.795Z,4.25
2022-10-17T12:19:30.762Z,4.00
2022-10-17T12:22:00.444Z,4.25
2022-10-17T12:24:43.471Z,4.00
2022-10-17T12:27:47.477Z,4.00
2022-10-17T12:30:20.848Z,4.50
2022-10-17T12:33:06.183Z,3.25
2022-10-17T12:35:36.985Z,3.75
2022-10-17T12:38:21.969Z,4.00
2022-10-17T12:40:54.790Z,3.50
2022-10-17T12:43:48.513Z,4.00
2022-10-17T12:46:44.134Z,4.00
2022-10-17T12:49:39.550Z,4.50
2022-10-17T12:52:29.803Z,3.50
2022-10-17T12:55:17.786Z,3.50
2022-10-17T12:57:53.287Z,4.75
2022-10-17T13:00:26.586Z,3.50
2022-10-17T13:02:55.934Z,3.75
2022-10-17T13:05:29.429Z,4.50
2022-10-17T13:07:57.747Z,4.75
2022-10-17T13:13:06.387Z,3.75
2022-10-17T13:15:35.725Z,4.75
2022-10-17T13:18:03.630Z,3.00
2022-10-17T13:20:32.155Z,3.50
2022-10-17T13:23:00.800Z,3.75
2022-10-17T13:25:29.069Z,3.50
2022-10-17T13:28:08.458Z,4.50
2022-10-17T13:30:37.766Z,3.75
2022-10-17T13:33:05.669Z,3.50
2022-10-17T13:35:58.973Z,3.75
2022-10-17T13:38:26.708Z,3.00
2022-10-17T13:41:01.672Z,4.25
2022-10-17T13:43:34.147Z,3.75
2022-10-17T13:46:25.345Z,3.50
2022-10-17T13:48:53.630Z,3.50
2022-10-17T13:51:21.563Z,4.00
2022-10-17T13:53:49.705Z,3.25
2022-10-17T13:56:28.964Z,4.00
2022-10-17T13:58:58.545Z,3.00
2022-10-17T14:01:29.224Z,4.25
2022-10-17T14:04:08.357Z,4.00
2022-10-17T14:06:36.634Z,3.00
2022-10-17T14:09:06.164Z,3.75
2022-10-17T14:11:35.716Z,3.50
2022-10-17T14:14:04.850Z,3.00
2022-10-17T14:16:38.490Z,3.50
2022-10-17T14:19:08.458Z,4.00
2022-10-17T14:21:44.413Z,3.50
2022-10-17T14:24:14.250Z,3.50
2022-10-17T14:26:49.395Z,3.50
2022-10-17T14:29:23.655Z,3.75
2022-10-17T14:31:58.840Z,3.75
2022-10-17T14:34:29.425Z,3.75
2022-10-17T14:36:57.340Z,4.50
2022-10-17T14:39:26.017Z,3.50
2022-10-17T14:41:53.996Z,3.00
2022-10-17T14:44:24.361Z,3.25
2022-10-17T14:46:55.816Z,3.75
2022-10-17T14:49:29.437Z,3.00
2022-10-17T14:52:31.240Z,4.25
2022-10-17T14:55:00.036Z,3.50
2022-10-17T14:57:35.631Z,2.75
2022-10-17T15:00:03.737Z,3.00
2022-10-17T15:02:33.467Z,4.75
2022-10-17T15:05:01.594Z,4.50
2022-10-17T15:07:29.484Z,3.75
2022-10-17T15:09:57.338Z,5.00
2022-10-17T15:12:26.060Z,5.00
2022-10-17T15:14:54.324Z,8.00
2022-10-17T15:17:23.092Z,7.25
2022-10-17T15:19:52.358Z,6.75
2022-10-17T15:22:20.581Z,7.25
2022-10-17T15:24:48.730Z,6.50
2022-10-17T15:27:17.585Z,6.50
2022-10-17T15:29:45.498Z,6.25
2022-10-17T15:32:13.447Z,5.25
2022-10-17T15:34:41.646Z,5.50
2022-10-17T15:37:17.281Z,6.00
2022-10-17T15:39:45.858Z,10.00
2022-10-17T15:42:13.753Z,9.75
2022-10-17T15:44:44.274Z,11.50
2022-10-17T15:47:15.284Z,12.50
2022-10-17T15:49:43.168Z,11.25
2022-10-17T15:52:12.767Z,12.00
2022-10-17T15:54:40.804Z,11.25
2022-10-17T15:57:10.271Z,11.50
2022-10-17T15:59:38.133Z,12.50
2022-10-17T16:02:09.515Z,12.25
2022-10-17T16:04:37.698Z,12.25
2022-10-17T16:07:07.396Z,10.50
2022-10-17T16:09:37.331Z,10.50
2022-10-17T16:12:06.166Z,10.75
2022-10-17T16:14:34.375Z,10.75
2022-10-17T16:17:02.218Z,12.50
2022-10-17T16:19:30.791Z,12.50
2022-10-17T16:22:03.664Z,13.25
2022-10-17T16:24:32.764Z,10.50
2022-10-17T16:27:01.993Z,10.00
2022-10-17T16:29:30.166Z,11.00
2022-10-17T16:31:58.327Z,10.25
2022-10-17T16:34:26.231Z,11.50
2022-10-17T16:36:54.103Z,11.00
2022-10-17T16:39:22.169Z,11.25
2022-10-17T16:41:52.530Z,10.75
2022-10-17T16:44:24.119Z,11.50
2022-10-17T16:46:52.092Z,11.50
2022-10-17T16:49:19.985Z,12.50
2022-10-17T16:51:47.843Z,12.50
2022-10-17T16:54:15.993Z,10.25
2022-10-17T16:56:43.979Z,12.50
2022-10-17T16:59:12.141Z,10.50
2022-10-17T17:01:41.712Z,11.00
2022-10-17T17:04:10.026Z,10.25
2022-10-17T17:06:38.018Z,10.25
2022-10-17T17:09:05.950Z,10.50
2022-10-17T17:11:33.840Z,10.50
2022-10-17T17:14:02.575Z,10.50
2022-10-17T17:16:31.315Z,9.50
2022-10-17T17:19:01.283Z,10.00
2022-10-17T17:21:29.215Z,9.75
2022-10-17T17:23:58.285Z,9.00
2022-10-17T17:26:26.535Z,8.50
2022-10-17T17:28:55.220Z,10.50
2022-10-17T17:31:25.233Z,9.25
2022-10-17T17:33:53.379Z,9.50
2022-10-17T17:36:23.409Z,11.00
2022-10-17T17:38:51.621Z,10.75
2022-10-17T17:41:20.170Z,12.25
2022-10-17T17:43:48.464Z,10.00
2022-10-17T17:46:18.101Z,12.00
2022-10-17T17:48:46.731Z,11.00
2022-10-17T17:51:15.430Z,9.75
2022-10-17T17:53:44.718Z,10.50
2022-10-17T17:56:15.169Z,10.75
2022-10-17T17:58:45.653Z,10.50
2022-10-17T18:01:17.888Z,11.25
2022-10-17T18:03:45.891Z,10.50
2022-10-17T18:06:13.831Z,10.50
2022-10-17T18:08:41.702Z,10.50
2022-10-17T18:11:11.025Z,10.75
2022-10-17T18:13:38.926Z,10.00
2022-10-17T18:16:13.186Z,10.75
2022-10-17T18:18:41.977Z,9.50
2022-10-17T18:21:09.857Z,9.75
2022-10-17T18:23:39.562Z,9.50
2022-10-17T18:26:07.921Z,11.50
2022-10-17T18:28:37.431Z,10.00
2022-10-17T18:31:07.090Z,10.00
2022-10-17T18:33:34.990Z,10.25
2022-10-17T18:36:07.375Z,10.50
2022-10-17T18:38:35.318Z,9.50
2022-10-17T18:41:04.592Z,9.25
2022-10-17T18:43:34.298Z,9.50
2022-10-17T18:46:12.395Z,11.50
2022-10-17T18:48:43.128Z,11.00
2022-10-17T18:51:11.044Z,9.75
2022-10-17T18:53:40.428Z,10.50
2022-10-17T18:56:08.967Z,9.50
2022-10-17T18:58:37.624Z,10.50
2022-10-17T19:01:07.470Z,10.50
2022-10-17T19:03:35.782Z,9.50
2022-10-17T19:06:04.093Z,10.50
2022-10-17T19:08:32.057Z,9.25
2022-10-17T19:11:06.000Z,9.00
2022-10-17T19:13:34.268Z,9.50
2022-10-17T19:16:05.454Z,8.50
2022-10-17T19:18:34.809Z,9.50
2022-10-17T19:21:03.392Z,9.50
2022-10-17T19:23:31.774Z,9.50
2022-10-17T19:26:03.624Z,10.50
2022-10-17T19:28:31.649Z,9.50
2022-10-17T19:30:59.594Z,9.25
2022-10-17T19:35:58.671Z,8.25
2022-10-17T19:38:26.543Z,9.75
2022-10-17T19:40:54.476Z,8.50
2022-10-17T19:43:22.565Z,8.50
2022-10-17T19:45:56.899Z,9.50
2022-10-17T19:48:25.234Z,10.25
2022-10-17T19:50:53.284Z,10.00
2022-10-17T19:53:23.729Z,9.50
2022-10-17T19:55:52.460Z,9.25
2022-10-17T19:58:20.694Z,9.00
2022-10-17T20:00:48.670Z,8.75
2022-10-17T20:03:16.562Z,8.25
2022-10-17T20:05:44.784Z,10.25
2022-10-17T20:08:12.842Z,11.50
2022-10-17T20:10:42.108Z,17.25
2022-10-17T20:13:10.074Z,19.00
2022-10-17T20:15:38.303Z,21.50
2022-10-17T20:18:06.497Z,21.50
2022-10-17T20:20:35.242Z,22.00
2022-10-17T20:23:03.162Z,21.25
2022-10-17T20:25:33.367Z,20.00
2022-10-17T20:28:02.824Z,18.00
2022-10-17T20:30:30.820Z,14.75
2022-10-17T20:32:58.753Z,16.00
2022-10-17T20:35:26.872Z,14.50
2022-10-17T20:37:54.724Z,15.50
2022-10-17T20:40:34.669Z,15.75
2022-10-17T20:43:07.032Z,13.25
2022-10-17T20:45:50.660Z,15.00
2022-10-17T20:48:19.833Z,14.25
2022-10-17T20:50:47.747Z,16.00
2022-10-17T20:53:35.926Z,15.50
2022-10-17T20:56:05.013Z,15.00
2022-10-17T20:58:34.292Z,15.00
2022-10-17T21:01:06.698Z,14.50
2022-10-17T21:03:37.831Z,16.25
2022-10-17T21:06:09.460Z,14.25
2022-10-17T21:08:37.305Z,14.25
2022-10-17T21:11:09.884Z,13.50
2022-10-17T21:13:39.255Z,13.50
2022-10-17T21:16:08.868Z,13.50
2022-10-17T21:18:36.792Z,13.00
2022-10-17T21:21:11.342Z,13.50
2022-10-17T21:23:39.653Z,11.75
2022-10-17T21:26:09.410Z,13.50
2022-10-17T21:28:38.987Z,12.75
2022-10-17T21:31:15.682Z,12.75
2022-10-17T21:33:45.952Z,12.50
2022-10-17T21:36:16.346Z,12.00
2022-10-17T21:38:44.390Z,11.50
2022-10-17T21:41:13.877Z,10.50
2022-10-17T21:43:43.340Z,10.75
2022-10-17T21:46:12.793Z,10.50
2022-10-17T21:48:40.662Z,10.50
2022-10-17T21:51:10.751Z,11.25
2022-10-17T21:53:38.611Z,10.00
2022-10-17T21:56:08.828Z,9.50
2022-10-17T21:58:37.241Z,10.00
2022-10-17T22:01:08.750Z,9.50
2022-10-17T22:03:37.154Z,7.50
2022-10-17T22:06:34.564Z,9.00
2022-10-17T22:08:53.482Z,9.50
2022-10-17T22:11:22.332Z,9.25
2022-10-17T22:13:54.538Z,8.25
2022-10-17T22:16:23.813Z,8.00
2022-10-17T22:18:51.634Z,8.50
2022-10-17T22:21:20.821Z,9.00
2022-10-17T22:23:57.098Z,7.50
2022-10-17T22:26:24.978Z,8.25
2022-10-17T22:28:52.861Z,7.25
2022-10-17T22:31:20.740Z,7.50
2022-10-17T22:33:50.307Z,8.25
2022-10-17T22:36:18.178Z,7.50
2022-10-17T22:38:46.039Z,9.00
2022-10-17T22:41:13.928Z,6.75
2022-10-17T22:43:41.775Z,6.75
2022-10-17T22:46:12.901Z,7.50
2022-10-17T22:48:40.830Z,7.00
2022-10-17T22:51:10.290Z,6.50
2022-10-17T22:53:38.212Z,5.50
2022-10-17T22:56:07.597Z,6.75
2022-10-17T22:58:35.840Z,6.25
2022-10-17T23:01:03.859Z,6.75
2022-10-17T23:03:32.329Z,7.00
2022-10-17T23:06:00.523Z,6.50
2022-10-17T23:08:29.754Z,6.25
2022-10-17T23:10:57.712Z,6.50
2022-10-17T23:13:25.571Z,7.00
2022-10-17T23:15:53.973Z,8.00
2022-10-17T23:18:22.386Z,7.00
2022-10-17T23:20:50.339Z,6.50
2022-10-17T23:23:18.276Z,7.25
2022-10-17T23:25:47.821Z,6.50
2022-10-17T23:28:15.752Z,7.50
2022-10-17T23:30:43.580Z,6.50
2022-10-17T23:33:11.949Z,6.75
2022-10-17T23:35:40.091Z,7.50
2022-10-17T23:38:07.946Z,7.50
2022-10-17T23:40:35.937Z,6.00
2022-10-17T23:43:05.274Z,6.50
2022-10-17T23:45:36.111Z,6.50
2022-10-17T23:48:05.524Z,6.00
2022-10-17T23:50:33.361Z,5.50
2022-10-17T23:53:01.258Z,6.25
2022-10-17T23:55:29.554Z,6.50
2022-10-17T23:57:57.433Z,6.00
